Time;durP1;ratioP1;P1;durP2;ratioP2;P2;SDS_P1;SDS_P2;PMS_P1;PMS_P2;Temp;Humidity;BMP_temperature;BMP_pressure;BME280_temperature;BME280_humidity;BME280_pressure;Samples;Min_cycle;Max_cycle;Signal;HPM_P1;HPM_P2
2023/03/18 00:01:50;;;;;;;5.17;1.70;;;;;;;;;;5071877;28;20938;-72
2023/03/18 00:04:18;;;;;;;5.23;1.87;;;;;;;;;;5072030;28;20792;-77
2023/03/18 00:06:45;;;;;;;3.73;1.53;;;;;;;;;;5071785;28;20503;-77
2023/03/18 00:09:12;;;;;;;2.60;1.37;;;;;;;;;;5071693;28;20477;-76
2023/03/18 00:11:39;;;;;;;2.80;1.40;;;;;;;;;;5071664;28;20449;-76
2023/03/18 00:14:07;;;;;;;1.50;0.90;;;;;;;;;;5071075;28;20499;-76
2023/03/18 00:16:36;;;;;;;3.57;1.83;;;;;;;;;;5071593;28;20434;-76
2023/03/18 00:19:03;;;;;;;1.87;1.70;;;;;;;;;;5071003;28;20449;-76
2023/03/18 00:21:31;;;;;;;2.47;1.40;;;;;;;;;;5071839;28;20438;-76
2023/03/18 00:23:59;;;;;;;1.90;1.03;;;;;;;;;;5070862;28;20439;-76
2023/03/18 00:26:27;;;;;;;1.40;1.30;;;;;;;;;;5071699;28;20444;-76
2023/03/18 00:28:56;;;;;;;2.53;1.80;;;;;;;;;;5071276;28;20469;-76
2023/03/18 00:31:23;;;;;;;1.77;1.50;;;;;;;;;;5071688;28;20437;-76
2023/03/18 00:33:52;;;;;;;3.47;2.13;;;;;;;;;;5071461;28;20801;-76
2023/03/18 00:36:24;;;;;;;3.03;1.90;;;;;;;;;;5071349;28;20955;-76
2023/03/18 00:38:56;;;;;;;3.63;1.00;;;;;;;;;;5071089;28;20445;-75
2023/03/18 00:41:23;;;;;;;1.23;1.10;;;;;;;;;;5071305;28;20951;-76
2023/03/18 00:43:52;;;;;;;3.37;1.57;;;;;;;;;;5071064;28;20456;-73
2023/03/18 00:46:21;;;;;;;3.37;1.30;;;;;;;;;;5071439;28;20473;-76
2023/03/18 00:48:48;;;;;;;3.00;1.47;;;;;;;;;;5071146;28;20480;-76
2023/03/18 00:51:17;;;;;;;1.57;1.00;;;;;;;;;;5071196;28;20762;-77
2023/03/18 00:53:45;;;;;;;2.40;1.10;;;;;;;;;;5070765;28;20522;-76
2023/03/18 00:56:12;;;;;;;1.30;1.03;;;;;;;;;;5070880;28;20442;-76
2023/03/18 00:58:40;;;;;;;2.73;1.20;;;;;;;;;;5071320;28;20485;-76
2023/03/18 01:01:08;;;;;;;1.13;0.97;;;;;;;;;;5070920;28;20429;-76
2023/03/18 01:03:36;;;;;;;1.47;1.20;;;;;;;;;;5070872;28;20445;-76
2023/03/18 01:06:04;;;;;;;4.67;1.50;;;;;;;;;;5070900;28;20795;-76
2023/03/18 01:08:32;;;;;;;4.20;1.17;;;;;;;;;;5070948;28;20449;-76
2023/03/18 01:10:59;;;;;;;1.23;0.93;;;;;;;;;;5070815;28;20441;-76
2023/03/18 01:13:27;;;;;;;1.10;1.00;;;;;;;;;;5070760;28;20767;-76
2023/03/18 01:15:55;;;;;;;1.97;1.20;;;;;;;;;;5070771;28;20444;-76
2023/03/18 01:18:22;;;;;;;2.47;1.23;;;;;;;;;;5070938;28;20973;-76
2023/03/18 01:20:50;;;;;;;1.53;1.40;;;;;;;;;;5071364;28;20503;-77
2023/03/18 01:23:17;;;;;;;1.93;1.00;;;;;;;;;;5070477;28;20442;-76
2023/03/18 01:25:45;;;;;;;1.57;1.00;;;;;;;;;;5071158;28;20441;-77
2023/03/18 01:28:13;;;;;;;2.30;1.13;;;;;;;;;;5070727;28;20448;-77
2023/03/18 01:30:41;;;;;;;2.30;1.40;;;;;;;;;;5075007;28;20485;-77
2023/03/18 01:33:08;;;;;;;2.67;0.90;;;;;;;;;;5074403;28;20449;-77
2023/03/18 01:35:36;;;;;;;2.00;1.10;;;;;;;;;;5074696;28;20528;-76
2023/03/18 01:38:04;;;;;;;1.80;1.43;;;;;;;;;;5074169;28;20752;-77
2023/03/18 01:40:32;;;;;;;2.87;1.90;;;;;;;;;;5074635;28;20461;-76
2023/03/18 01:43:05;;;;;;;1.20;0.90;;;;;;;;;;5074232;28;20437;-77
2023/03/18 01:45:32;;;;;;;1.77;1.10;;;;;;;;;;5074124;28;20462;-77
2023/03/18 01:47:59;;;;;;;1.30;1.20;;;;;;;;;;5074240;28;20445;-77
2023/03/18 01:50:29;;;;;;;1.90;1.10;;;;;;;;;;5074777;28;20473;-75
2023/03/18 01:52:58;;;;;;;4.87;1.33;;;;;;;;;;5061164;28;20856;-76
2023/03/18 01:55:26;;;;;;;4.00;1.20;;;;;;;;;;5074194;28;20430;-77
2023/03/18 01:57:53;;;;;;;3.70;1.37;;;;;;;;;;5073794;28;20449;-77
2023/03/18 02:00:22;;;;;;;3.70;0.90;;;;;;;;;;5074399;28;20925;-74
2023/03/18 02:02:50;;;;;;;1.10;0.70;;;;;;;;;;5074599;28;20794;-77
2023/03/18 02:05:23;;;;;;;1.77;1.20;;;;;;;;;;5074042;28;20473;-77
2023/03/18 02:07:51;;;;;;;1.27;1.00;;;;;;;;;;5073643;28;20524;-72
2023/03/18 02:10:20;;;;;;;1.60;1.37;;;;;;;;;;5074434;28;20480;-77
2023/03/18 02:12:50;;;;;;;1.03;0.87;;;;;;;;;;5074560;28;20460;-76
2023/03/18 02:15:20;;;;;;;2.37;1.60;;;;;;;;;;5074388;28;20780;-77
2023/03/18 02:17:51;;;;;;;1.80;1.17;;;;;;;;;;5074491;28;20445;-76
2023/03/18 02:20:25;;;;;;;3.27;1.20;;;;;;;;;;5074118;28;20442;-77
2023/03/18 02:22:53;;;;;;;2.10;1.23;;;;;;;;;;5073374;28;20437;-76
2023/03/18 02:25:26;;;;;;;2.20;0.97;;;;;;;;;;5073844;28;20442;-75
2023/03/18 02:27:57;;;;;;;1.60;1.33;;;;;;;;;;5073240;28;20930;-76
2023/03/18 02:30:26;;;;;;;2.03;1.00;;;;;;;;;;5073854;28;20477;-76
2023/03/18 02:32:55;;;;;;;1.90;1.13;;;;;;;;;;5073337;28;20794;-76
2023/03/18 02:35:23;;;;;;;1.83;1.33;;;;;;;;;;5073515;28;20442;-76
2023/03/18 02:37:50;;;;;;;1.53;1.43;;;;;;;;;;5073839;28;20438;-77
2023/03/18 02:40:18;;;;;;;1.60;0.87;;;;;;;;;;5072845;28;20445;-77
2023/03/18 02:42:45;;;;;;;2.90;1.17;;;;;;;;;;5074081;28;20437;-77
2023/03/18 02:45:20;;;;;;;1.67;1.10;;;;;;;;;;5072714;28;20453;-77
2023/03/18 02:47:47;;;;;;;1.87;0.80;;;;;;;;;;5073828;28;20444;-77
2023/03/18 02:50:15;;;;;;;1.23;1.00;;;;;;;;;;5073131;28;20485;-77
2023/03/18 02:52:42;;;;;;;1.60;1.07;;;;;;;;;;5073404;28;20441;-77
2023/03/18 02:55:09;;;;;;;2.57;1.27;;;;;;;;;;5072578;28;20438;-77
2023/03/18 02:57:36;;;;;;;1.87;1.03;;;;;;;;;;5073452;28;20444;-77
2023/03/18 03:00:04;;;;;;;3.17;1.10;;;;;;;;;;5073063;28;20446;-77
2023/03/18 03:02:33;;;;;;;1.00;0.90;;;;;;;;;;5060169;28;20437;-77
2023/03/18 03:05:00;;;;;;;1.33;1.10;;;;;;;;;;5071809;28;20449;-76
2023/03/18 03:07:27;;;;;;;1.63;1.13;;;;;;;;;;5072630;28;20929;-76
2023/03/18 03:09:55;;;;;;;2.53;1.00;;;;;;;;;;5072305;28;20572;-76
2023/03/18 03:12:22;;;;;;;0.83;0.67;;;;;;;;;;5073218;28;20868;-76
2023/03/18 03:14:50;;;;;;;3.33;1.67;;;;;;;;;;5072486;28;20495;-77
2023/03/18 03:17:17;;;;;;;2.10;1.37;;;;;;;;;;5072921;28;20744;-77
2023/03/18 03:19:46;;;;;;;1.80;1.10;;;;;;;;;;5073000;28;20442;-77
2023/03/18 03:22:13;;;;;;;1.17;0.93;;;;;;;;;;5072142;28;20450;-77
2023/03/18 03:24:40;;;;;;;1.47;1.17;;;;;;;;;;5072102;28;20991;-77
2023/03/18 03:27:07;;;;;;;1.30;0.83;;;;;;;;;;5072400;28;20444;-77
2023/03/18 03:29:34;;;;;;;1.93;1.00;;;;;;;;;;5072783;28;20478;-77
2023/03/18 03:32:01;;;;;;;1.40;0.80;;;;;;;;;;5072061;28;20927;-76
2023/03/18 03:34:29;;;;;;;1.00;0.90;;;;;;;;;;5072184;28;20445;-77
2023/03/18 03:36:57;;;;;;;1.10;1.00;;;;;;;;;;5072160;28;20468;-77
2023/03/18 03:39:24;;;;;;;1.50;1.00;;;;;;;;;;5072437;28;20446;-77
2023/03/18 03:41:51;;;;;;;2.50;1.13;;;;;;;;;;5071787;28;20452;-75
2023/03/18 03:44:19;;;;;;;1.30;1.00;;;;;;;;;;5072204;28;20935;-77
2023/03/18 03:46:47;;;;;;;1.20;0.80;;;;;;;;;;5072191;28;20568;-77
2023/03/18 03:49:14;;;;;;;1.10;1.00;;;;;;;;;;5071636;28;20521;-77
2023/03/18 03:51:41;;;;;;;2.87;1.40;;;;;;;;;;5071950;28;20948;-77
2023/03/18 03:54:11;;;;;;;1.23;0.80;;;;;;;;;;5071276;28;20441;-77
2023/03/18 03:56:39;;;;;;;1.00;0.80;;;;;;;;;;5072095;28;20434;-77
2023/03/18 03:59:06;;;;;;;1.20;0.97;;;;;;;;;;5071508;28;20465;-77
2023/03/18 04:01:33;;;;;;;1.93;1.00;;;;;;;;;;5071928;28;20448;-77
2023/03/18 04:04:01;;;;;;;2.10;1.03;;;;;;;;;;5071106;28;20450;-77
2023/03/18 04:06:29;;;;;;;1.40;0.87;;;;;;;;;;5072022;28;20441;-77
2023/03/18 04:08:56;;;;;;;1.57;1.03;;;;;;;;;;5070991;28;20932;-77
2023/03/18 04:11:24;;;;;;;2.43;1.50;;;;;;;;;;5071833;28;20481;-77
2023/03/18 04:13:52;;;;;;;1.47;1.03;;;;;;;;;;5070685;28;20441;-76
2023/03/18 04:16:19;;;;;;;1.73;0.70;;;;;;;;;;5071995;28;20442;-77
2023/03/18 04:18:46;;;;;;;2.17;1.10;;;;;;;;;;5071939;28;20502;-77
2023/03/18 04:21:14;;;;;;;1.30;0.97;;;;;;;;;;5070890;28;20445;-76
2023/03/18 04:23:41;;;;;;;2.63;1.20;;;;;;;;;;5071241;28;20848;-76
2023/03/18 04:26:09;;;;;;;1.13;0.93;;;;;;;;;;5071197;28;20437;-77
2023/03/18 04:28:38;;;;;;;1.50;1.00;;;;;;;;;;5071864;28;20445;-77
2023/03/18 04:31:05;;;;;;;0.80;0.60;;;;;;;;;;5071129;28;20473;-76
2023/03/18 04:33:33;;;;;;;1.67;1.10;;;;;;;;;;5071370;28;20442;-77
2023/03/18 04:36:00;;;;;;;1.40;1.07;;;;;;;;;;5070887;28;20441;-77
2023/03/18 04:38:27;;;;;;;1.47;0.80;;;;;;;;;;5071512;28;20781;-77
2023/03/18 04:40:54;;;;;;;1.60;1.00;;;;;;;;;;5070843;28;20451;-77
2023/03/18 04:43:21;;;;;;;2.33;0.97;;;;;;;;;;5070849;28;20434;-76
2023/03/18 04:45:50;;;;;;;2.60;1.23;;;;;;;;;;5071081;28;20559;-77
2023/03/18 04:48:18;;;;;;;4.97;0.97;;;;;;;;;;5071847;28;20449;-77
2023/03/18 04:50:45;;;;;;;1.37;0.80;;;;;;;;;;5071115;28;20826;-77
2023/03/18 04:53:12;;;;;;;1.00;0.90;;;;;;;;;;5070298;28;20437;-77
2023/03/18 04:55:40;;;;;;;1.43;0.73;;;;;;;;;;5071397;28;20437;-77
2023/03/18 04:58:07;;;;;;;1.17;1.03;;;;;;;;;;5071014;28;20446;-77
2023/03/18 05:00:34;;;;;;;1.00;0.70;;;;;;;;;;5071345;28;20437;-76
2023/03/18 05:03:02;;;;;;;1.70;1.00;;;;;;;;;;5069799;28;20444;-77
2023/03/18 05:05:30;;;;;;;4.20;1.33;;;;;;;;;;5071345;28;20507;-77
2023/03/18 05:07:57;;;;;;;0.90;0.70;;;;;;;;;;5070648;28;20437;-76
2023/03/18 05:10:24;;;;;;;2.00;1.53;;;;;;;;;;5070879;28;20968;-77
2023/03/18 05:12:51;;;;;;;1.63;1.00;;;;;;;;;;5070713;28;20441;-73
2023/03/18 05:15:19;;;;;;;3.43;1.23;;;;;;;;;;5071540;28;20560;-77
2023/03/18 05:17:46;;;;;;;2.80;1.00;;;;;;;;;;5071746;28;20488;-77
2023/03/18 05:20:15;;;;;;;0.77;0.70;;;;;;;;;;5070315;28;20954;-77
2023/03/18 05:22:42;;;;;;;1.80;1.07;;;;;;;;;;5071218;28;20441;-77
2023/03/18 05:25:11;;;;;;;1.17;1.07;;;;;;;;;;5069632;28;20441;-77
2023/03/18 05:27:39;;;;;;;1.37;1.00;;;;;;;;;;5071089;28;20464;-76
2023/03/18 05:30:06;;;;;;;1.63;0.90;;;;;;;;;;5057141;28;20837;-77
2023/03/18 05:32:34;;;;;;;2.20;1.80;;;;;;;;;;5070899;28;20459;-76
2023/03/18 05:35:02;;;;;;;1.27;0.90;;;;;;;;;;5069579;28;20540;-77
2023/03/18 05:37:31;;;;;;;1.20;1.10;;;;;;;;;;5070813;28;20450;-77
2023/03/18 05:39:58;;;;;;;1.20;1.10;;;;;;;;;;5070310;28;20433;-77
2023/03/18 05:42:25;;;;;;;1.77;1.00;;;;;;;;;;5070707;28;20441;-76
2023/03/18 05:44:53;;;;;;;1.90;1.80;;;;;;;;;;5070212;28;20461;-76
2023/03/18 05:47:20;;;;;;;2.27;1.27;;;;;;;;;;5071154;28;20480;-77
2023/03/18 05:49:47;;;;;;;4.83;1.30;;;;;;;;;;5071083;28;20500;-77
2023/03/18 05:52:16;;;;;;;1.30;1.00;;;;;;;;;;5070144;28;20492;-77
2023/03/18 05:54:44;;;;;;;3.90;1.40;;;;;;;;;;5070323;28;20494;-77
2023/03/18 05:57:12;;;;;;;1.57;0.87;;;;;;;;;;5070232;28;20456;-77
2023/03/18 05:59:39;;;;;;;1.83;0.80;;;;;;;;;;5070779;28;20433;-77
2023/03/18 06:02:06;;;;;;;3.10;1.40;;;;;;;;;;5070164;28;20457;-76
2023/03/18 06:04:33;;;;;;;1.40;1.00;;;;;;;;;;5070333;28;20444;-76
2023/03/18 06:07:02;;;;;;;2.47;1.40;;;;;;;;;;5069609;28;20437;-76
2023/03/18 06:09:29;;;;;;;2.80;1.20;;;;;;;;;;5070535;28;20444;-77
2023/03/18 06:11:58;;;;;;;2.00;1.10;;;;;;;;;;5069799;28;20869;-77
2023/03/18 06:14:28;;;;;;;2.07;0.90;;;;;;;;;;5070686;28;20455;-77
2023/03/18 06:16:55;;;;;;;1.10;0.80;;;;;;;;;;5073604;28;20437;-77
2023/03/18 06:19:22;;;;;;;1.83;0.97;;;;;;;;;;5074339;28;20437;-76
2023/03/18 06:21:50;;;;;;;1.10;1.00;;;;;;;;;;5073848;28;20921;-77
2023/03/18 06:24:17;;;;;;;1.30;1.10;;;;;;;;;;5073648;28;20487;-77
2023/03/18 06:26:44;;;;;;;2.90;1.57;;;;;;;;;;5073491;28;20434;-77
2023/03/18 06:29:13;;;;;;;1.60;1.40;;;;;;;;;;5073183;28;21023;-77
2023/03/18 06:31:40;;;;;;;1.47;1.00;;;;;;;;;;5073777;28;20473;-77
2023/03/18 06:34:07;;;;;;;3.27;1.13;;;;;;;;;;5073073;28;20782;-77
2023/03/18 06:36:34;;;;;;;1.03;0.70;;;;;;;;;;5073679;28;20476;-77
2023/03/18 06:39:01;;;;;;;4.10;1.10;;;;;;;;;;5072721;28;21026;-77
2023/03/18 06:41:28;;;;;;;2.33;1.00;;;;;;;;;;5073735;28;20441;-77
2023/03/18 06:43:56;;;;;;;1.40;0.97;;;;;;;;;;5072659;28;20460;-77
2023/03/18 06:46:24;;;;;;;2.30;1.43;;;;;;;;;;5073213;28;20481;-77
2023/03/18 06:48:53;;;;;;;1.00;0.80;;;;;;;;;;5073046;28;20514;-75
2023/03/18 06:51:20;;;;;;;2.40;0.90;;;;;;;;;;5073869;28;20480;-77
2023/03/18 06:53:47;;;;;;;4.30;1.40;;;;;;;;;;5072850;28;20916;-77
2023/03/18 06:56:15;;;;;;;1.33;1.00;;;;;;;;;;5073038;28;20555;-77
2023/03/18 06:58:42;;;;;;;1.43;0.90;;;;;;;;;;5073537;28;20506;-77
2023/03/18 07:01:11;;;;;;;1.67;1.27;;;;;;;;;;5072652;28;20925;-77
2023/03/18 07:03:39;;;;;;;2.40;1.53;;;;;;;;;;5072916;28;20452;-77
2023/03/18 07:06:08;;;;;;;1.57;1.30;;;;;;;;;;5072860;28;20786;-77
2023/03/18 07:08:35;;;;;;;1.77;1.20;;;;;;;;;;5073173;28;20487;-77
2023/03/18 07:11:03;;;;;;;1.33;1.20;;;;;;;;;;5072669;28;20481;-77
2023/03/18 07:13:31;;;;;;;2.40;1.03;;;;;;;;;;5072688;28;20536;-77
2023/03/18 07:15:59;;;;;;;1.63;1.00;;;;;;;;;;5072706;28;20503;-77
2023/03/18 07:18:26;;;;;;;1.27;0.90;;;;;;;;;;5073035;28;20521;-77
2023/03/18 07:20:54;;;;;;;1.97;1.77;;;;;;;;;;5072621;28;20441;-77
2023/03/18 07:23:21;;;;;;;1.20;0.80;;;;;;;;;;5072461;28;20437;-77
2023/03/18 07:25:49;;;;;;;2.07;1.30;;;;;;;;;;5072977;28;20437;-78
2023/03/18 07:28:16;;;;;;;3.27;1.53;;;;;;;;;;5072555;28;20449;-78
2023/03/18 07:30:43;;;;;;;1.00;0.90;;;;;;;;;;5072871;28;20492;-78
2023/03/18 07:33:11;;;;;;;5.60;1.13;;;;;;;;;;5071596;28;20441;-77
2023/03/18 07:35:39;;;;;;;1.10;1.00;;;;;;;;;;5072842;28;20749;-78
2023/03/18 07:38:08;;;;;;;1.83;1.40;;;;;;;;;;5072189;28;20454;-78
2023/03/18 07:40:35;;;;;;;3.43;1.10;;;;;;;;;;5072315;28;20925;-77
2023/03/18 07:43:02;;;;;;;1.70;1.10;;;;;;;;;;5071666;28;20437;-78
2023/03/18 07:45:29;;;;;;;1.60;1.30;;;;;;;;;;5072337;28;20461;-77
2023/03/18 07:47:56;;;;;;;1.07;0.97;;;;;;;;;;5058653;28;20921;-77
2023/03/18 07:50:24;;;;;;;1.47;1.20;;;;;;;;;;5072477;28;20458;-78
2023/03/18 07:52:51;;;;;;;1.17;0.73;;;;;;;;;;5071248;28;20559;-73
2023/03/18 07:55:20;;;;;;;1.27;1.00;;;;;;;;;;5072609;28;20818;-77
2023/03/18 07:57:47;;;;;;;1.70;1.10;;;;;;;;;;5072177;28;20446;-77
2023/03/18 08:00:15;;;;;;;1.40;0.70;;;;;;;;;;5071749;28;20498;-77
2023/03/18 08:02:42;;;;;;;2.60;1.03;;;;;;;;;;5071917;28;20856;-77
2023/03/18 08:05:10;;;;;;;1.00;0.90;;;;;;;;;;5071576;28;20449;-78
2023/03/18 08:07:38;;;;;;;1.63;0.90;;;;;;;;;;5072162;28;20438;-77
2023/03/18 08:10:05;;;;;;;3.93;1.10;;;;;;;;;;5071076;28;20529;-78
2023/03/18 08:12:34;;;;;;;1.33;0.90;;;;;;;;;;5071923;28;20562;-77
2023/03/18 08:15:01;;;;;;;1.80;0.97;;;;;;;;;;5071511;28;20453;-77
2023/03/18 08:17:28;;;;;;;2.37;0.97;;;;;;;;;;5072054;28;20762;-77
2023/03/18 08:19:55;;;;;;;2.70;1.17;;;;;;;;;;5071367;28;20441;-78
2023/03/18 08:22:23;;;;;;;3.20;0.77;;;;;;;;;;5071941;28;20805;-77
2023/03/18 08:24:50;;;;;;;0.93;0.80;;;;;;;;;;5071502;28;20469;-78
2023/03/18 08:27:17;;;;;;;1.93;0.90;;;;;;;;;;5071760;28;21024;-78
2023/03/18 08:29:46;;;;;;;1.50;0.67;;;;;;;;;;5071838;28;20438;-78
2023/03/18 08:32:14;;;;;;;1.83;0.77;;;;;;;;;;5071144;28;20484;-78
2023/03/18 08:34:41;;;;;;;1.67;0.97;;;;;;;;;;5071330;28;20977;-78
2023/03/18 08:37:08;;;;;;;1.53;0.90;;;;;;;;;;5071271;28;20437;-78
2023/03/18 08:39:35;;;;;;;1.23;1.00;;;;;;;;;;5070385;28;20445;-78
2023/03/18 08:42:03;;;;;;;0.70;0.70;;;;;;;;;;5071080;28;20791;-77
2023/03/18 08:44:31;;;;;;;1.90;1.07;;;;;;;;;;5071043;28;20445;-77
2023/03/18 08:47:00;;;;;;;0.70;0.70;;;;;;;;;;5071192;28;20532;-77
2023/03/18 08:49:27;;;;;;;1.00;0.90;;;;;;;;;;5071427;28;20515;-78
2023/03/18 08:51:55;;;;;;;4.00;1.00;;;;;;;;;;5070935;28;20477;-78
2023/03/18 08:54:22;;;;;;;1.90;0.90;;;;;;;;;;5070893;28;20460;-77
2023/03/18 08:56:51;;;;;;;1.00;0.90;;;;;;;;;;5071395;28;20809;-77
2023/03/18 08:59:18;;;;;;;0.70;0.60;;;;;;;;;;5070767;28;20495;-77
2023/03/18 09:01:46;;;;;;;1.13;0.80;;;;;;;;;;5070659;28;20434;-77
2023/03/18 09:04:15;;;;;;;0.70;0.70;;;;;;;;;;5070505;28;20456;-77
2023/03/18 09:06:42;;;;;;;1.83;1.07;;;;;;;;;;5070875;28;20446;-77
2023/03/18 09:09:10;;;;;;;1.53;0.70;;;;;;;;;;5070775;28;20441;-77
2023/03/18 09:11:37;;;;;;;2.70;0.73;;;;;;;;;;5070859;28;20531;-78
2023/03/18 09:14:05;;;;;;;0.90;0.73;;;;;;;;;;5069953;28;20456;-78
2023/03/18 09:16:32;;;;;;;1.93;1.00;;;;;;;;;;5071100;28;20448;-78
2023/03/18 09:18:59;;;;;;;1.53;0.70;;;;;;;;;;5070699;28;20759;-77
2023/03/18 09:21:28;;;;;;;2.13;1.40;;;;;;;;;;5071247;28;20449;-78
2023/03/18 09:23:55;;;;;;;1.20;0.77;;;;;;;;;;5070210;28;20442;-78
2023/03/18 09:26:22;;;;;;;0.83;0.60;;;;;;;;;;5071159;28;20446;-77
2023/03/18 09:28:50;;;;;;;0.83;0.63;;;;;;;;;;5071463;28;20483;-78
2023/03/18 09:31:18;;;;;;;1.13;0.87;;;;;;;;;;5071074;28;20446;-78
2023/03/18 09:33:45;;;;;;;3.70;0.77;;;;;;;;;;5070643;28;20872;-75
2023/03/18 09:36:13;;;;;;;2.23;0.80;;;;;;;;;;5070317;28;20456;-76
2023/03/18 09:38:42;;;;;;;0.83;0.80;;;;;;;;;;5070851;28;20446;-75
2023/03/18 09:41:17;;;;;;;1.80;1.37;;;;;;;;;;5070434;28;20525;-76
2023/03/18 09:43:51;;;;;;;1.33;0.90;;;;;;;;;;5070626;28;20467;-76
2023/03/18 09:46:23;;;;;;;0.90;0.70;;;;;;;;;;5071162;28;20469;-76
2023/03/18 09:48:58;;;;;;;1.20;0.80;;;;;;;;;;5071083;28;20777;-73
2023/03/18 09:51:33;;;;;;;2.27;0.90;;;;;;;;;;5074435;28;20559;-76
2023/03/18 09:54:05;;;;;;;3.03;0.80;;;;;;;;;;5073975;28;20433;-77
2023/03/18 09:56:33;;;;;;;1.10;0.80;;;;;;;;;;5074513;28;20671;-77
2023/03/18 09:59:03;;;;;;;1.93;1.03;;;;;;;;;;5073728;28;20438;-77
2023/03/18 10:01:30;;;;;;;1.30;0.73;;;;;;;;;;5074363;28;20441;-76
2023/03/18 10:04:00;;;;;;;1.80;0.90;;;;;;;;;;5073524;28;20437;-76
2023/03/18 10:06:27;;;;;;;2.07;0.77;;;;;;;;;;5074399;28;20525;-76
2023/03/18 10:08:59;;;;;;;1.00;0.80;;;;;;;;;;5073394;28;20448;-77
2023/03/18 10:11:31;;;;;;;1.50;0.63;;;;;;;;;;5074350;28;20457;-76
2023/03/18 10:14:01;;;;;;;1.60;1.20;;;;;;;;;;5073673;28;20450;-77
2023/03/18 10:16:31;;;;;;;1.40;0.83;;;;;;;;;;5074336;28;20442;-77
2023/03/18 10:18:58;;;;;;;1.33;0.77;;;;;;;;;;5073749;28;20437;-77
2023/03/18 10:21:33;;;;;;;1.43;0.67;;;;;;;;;;5074463;28;20452;-76
2023/03/18 10:24:03;;;;;;;1.90;0.90;;;;;;;;;;5073210;28;20432;-77
2023/03/18 10:26:34;;;;;;;0.83;0.53;;;;;;;;;;5074111;28;20449;-77
2023/03/18 10:29:09;;;;;;;1.23;0.90;;;;;;;;;;5073985;28;20437;-77
2023/03/18 10:31:45;;;;;;;1.13;0.83;;;;;;;;;;5074169;28;20437;-77
2023/03/18 10:34:15;;;;;;;0.90;0.70;;;;;;;;;;5072858;28;20448;-77
2023/03/18 10:36:47;;;;;;;0.60;0.50;;;;;;;;;;5074032;28;20469;-79
2023/03/18 10:39:15;;;;;;;1.50;0.97;;;;;;;;;;5073205;28;20515;-77
2023/03/18 10:41:44;;;;;;;1.37;0.90;;;;;;;;;;5073867;28;20852;-77
2023/03/18 10:44:17;;;;;;;1.10;0.90;;;;;;;;;;5072611;28;20445;-77
2023/03/18 10:46:45;;;;;;;2.53;0.70;;;;;;;;;;5073771;28;20500;-77
2023/03/18 10:49:16;;;;;;;2.50;0.90;;;;;;;;;;5073051;28;20441;-77
2023/03/18 10:51:46;;;;;;;0.70;0.60;;;;;;;;;;5073630;28;20441;-77
2023/03/18 10:54:16;;;;;;;1.30;0.90;;;;;;;;;;5072556;28;20477;-77
2023/03/18 10:56:45;;;;;;;2.33;0.93;;;;;;;;;;5073614;28;20449;-77
2023/03/18 10:59:14;;;;;;;1.23;1.13;;;;;;;;;;5072938;28;20442;-77
2023/03/18 11:01:42;;;;;;;2.10;1.20;;;;;;;;;;5072617;28;20446;-76
2023/03/18 11:04:13;;;;;;;2.10;0.90;;;;;;;;;;5059366;28;20448;-77
2023/03/18 11:06:42;;;;;;;1.40;0.80;;;;;;;;;;5073401;28;20433;-77
2023/03/18 11:09:11;;;;;;;2.40;1.07;;;;;;;;;;5072347;28;20433;-77
2023/03/18 11:11:40;;;;;;;3.83;1.30;;;;;;;;;;5073198;28;20441;-77
2023/03/18 11:14:15;;;;;;;2.40;1.10;;;;;;;;;;5071867;28;20935;-77
2023/03/18 11:16:48;;;;;;;0.93;0.80;;;;;;;;;;5073146;28;20441;-77
2023/03/18 11:19:27;;;;;;;1.43;0.83;;;;;;;;;;5072991;28;20441;-77
2023/03/18 11:22:00;;;;;;;1.73;0.90;;;;;;;;;;5072314;28;20438;-77
2023/03/18 11:24:37;;;;;;;1.53;1.00;;;;;;;;;;5072196;28;20937;-77
2023/03/18 11:27:04;;;;;;;4.37;0.93;;;;;;;;;;5072146;28;20445;-77
2023/03/18 11:29:36;;;;;;;2.27;0.83;;;;;;;;;;5072788;28;20441;-77
2023/03/18 11:32:03;;;;;;;0.87;0.70;;;;;;;;;;5071830;28;20469;-77
2023/03/18 11:34:31;;;;;;;1.93;0.80;;;;;;;;;;5072247;28;20537;-77
2023/03/18 11:37:00;;;;;;;1.30;1.00;;;;;;;;;;5072173;28;20441;-77
2023/03/18 11:39:29;;;;;;;1.27;1.03;;;;;;;;;;5072212;28;20937;-77
2023/03/18 11:41:58;;;;;;;2.10;0.77;;;;;;;;;;5072092;28;20536;-77
2023/03/18 11:44:26;;;;;;;2.00;0.80;;;;;;;;;;5072222;28;20454;-77
2023/03/18 11:46:57;;;;;;;1.40;0.57;;;;;;;;;;5072163;28;20496;-77
2023/03/18 11:49:27;;;;;;;1.27;0.60;;;;;;;;;;5072510;28;20531;-77
2023/03/18 11:51:56;;;;;;;1.53;0.90;;;;;;;;;;5071891;28;20449;-76
2023/03/18 11:54:40;;;;;;;1.53;0.90;;;;;;;;;;5071726;28;20449;-71
2023/03/18 11:57:11;;;;;;;2.13;1.03;;;;;;;;;;5071723;28;20430;-71
2023/03/18 11:59:49;;;;;;;2.70;0.80;;;;;;;;;;5071975;28;20434;-68
2023/03/18 12:02:41;;;;;;;1.50;1.00;;;;;;;;;;5071747;28;20442;-68
2023/03/18 12:05:27;;;;;;;1.80;0.73;;;;;;;;;;5071625;28;20453;-70
2023/03/18 12:08:00;;;;;;;0.90;0.70;;;;;;;;;;5071930;28;20441;-67
2023/03/18 12:10:32;;;;;;;2.33;1.50;;;;;;;;;;5071611;28;20909;-68
2023/03/18 12:13:07;;;;;;;3.73;2.40;;;;;;;;;;5070999;28;20560;-73
2023/03/18 12:15:42;;;;;;;2.20;1.00;;;;;;;;;;5071922;28;20441;-72
2023/03/18 12:18:16;;;;;;;2.10;0.80;;;;;;;;;;5071252;28;20437;-71
2023/03/18 12:20:49;;;;;;;1.57;1.00;;;;;;;;;;5071924;28;20786;-73
2023/03/18 12:23:29;;;;;;;2.77;1.37;;;;;;;;;;5071622;28;20437;-78
2023/03/18 12:26:02;;;;;;;1.00;0.80;;;;;;;;;;5072233;28;20467;-77
2023/03/18 12:28:33;;;;;;;1.87;1.30;;;;;;;;;;5072122;28;20846;-78
2023/03/18 12:31:05;;;;;;;1.40;0.80;;;;;;;;;;5071359;28;20438;-69
2023/03/18 12:33:44;;;;;;;1.27;0.70;;;;;;;;;;5071558;28;20488;-70
2023/03/18 12:36:18;;;;;;;2.23;0.90;;;;;;;;;;5071202;28;20894;-71
2023/03/18 12:38:56;;;;;;;2.30;0.70;;;;;;;;;;5072191;28;20436;-71
2023/03/18 12:41:28;;;;;;;1.60;1.00;;;;;;;;;;5071595;28;20433;-70
2023/03/18 12:44:01;;;;;;;1.67;1.00;;;;;;;;;;5070604;28;20453;-70
2023/03/18 12:46:32;;;;;;;1.10;0.87;;;;;;;;;;5071590;28;20474;-68
2023/03/18 12:49:03;;;;;;;1.00;0.73;;;;;;;;;;5071184;28;20445;-70
2023/03/18 12:51:34;;;;;;;1.03;0.70;;;;;;;;;;5071570;28;20430;-70
2023/03/18 12:54:09;;;;;;;1.87;1.03;;;;;;;;;;5070807;28;20528;-69
2023/03/18 12:56:38;;;;;;;1.30;1.00;;;;;;;;;;5072011;28;20429;-70
2023/03/18 12:59:08;;;;;;;2.50;1.10;;;;;;;;;;5070958;28;20912;-69
2023/03/18 13:01:37;;;;;;;1.40;1.10;;;;;;;;;;5071775;28;20476;-70
2023/03/18 13:04:07;;;;;;;2.50;0.97;;;;;;;;;;5070514;28;20459;-66
2023/03/18 13:06:38;;;;;;;1.10;0.83;;;;;;;;;;5071244;28;20441;-66
2023/03/18 13:09:08;;;;;;;1.07;0.77;;;;;;;;;;5071067;28;20446;-66
2023/03/18 13:11:50;;;;;;;1.10;0.93;;;;;;;;;;5071234;28;20786;-66
2023/03/18 13:14:22;;;;;;;2.40;0.80;;;;;;;;;;5068438;28;20493;-65
2023/03/18 13:16:50;;;;;;;1.10;0.80;;;;;;;;;;5072072;28;20780;-66
2023/03/18 13:19:18;;;;;;;0.90;0.70;;;;;;;;;;5071358;28;20943;-66
2023/03/18 13:21:47;;;;;;;3.97;0.90;;;;;;;;;;5071363;28;20461;-66
2023/03/18 13:24:20;;;;;;;4.30;2.20;;;;;;;;;;5070695;28;20532;-68
2023/03/18 13:26:53;;;;;;;0.90;0.70;;;;;;;;;;5075626;28;20518;-66
2023/03/18 13:29:25;;;;;;;2.13;0.90;;;;;;;;;;5075182;28;20921;-66
2023/03/18 13:31:55;;;;;;;2.60;1.10;;;;;;;;;;5074611;28;20913;-66
2023/03/18 13:34:43;;;;;;;1.67;0.90;;;;;;;;;;5074267;28;20481;-66
2023/03/18 13:37:37;;;;;;;0.83;0.80;;;;;;;;;;5074294;28;20761;-66
2023/03/18 13:40:18;;;;;;;1.53;1.10;;;;;;;;;;5038404;28;20453;-66
2023/03/18 13:42:46;;;;;;;2.50;0.90;;;;;;;;;;5074946;28;20762;-66
2023/03/18 13:45:21;;;;;;;1.47;0.93;;;;;;;;;;5074417;28;20441;-66
2023/03/18 13:47:55;;;;;;;1.30;0.80;;;;;;;;;;5075181;28;20436;-66
2023/03/18 13:50:33;;;;;;;1.83;0.80;;;;;;;;;;5074967;28;20435;-66
2023/03/18 13:53:01;;;;;;;1.13;0.60;;;;;;;;;;5073870;28;20582;-66
2023/03/18 13:55:31;;;;;;;1.20;0.77;;;;;;;;;;5074639;28;20863;-66
2023/03/18 13:58:09;;;;;;;2.87;0.73;;;;;;;;;;5074470;28;20437;-65
2023/03/18 14:00:39;;;;;;;1.40;0.90;;;;;;;;;;5074420;28;20425;-66
2023/03/18 14:03:16;;;;;;;1.00;0.70;;;;;;;;;;5073656;28;20791;-66
2023/03/18 14:05:45;;;;;;;1.23;0.70;;;;;;;;;;5074519;28;20472;-66
2023/03/18 14:08:41;;;;;;;1.00;0.80;;;;;;;;;;5073611;28;20471;-66
2023/03/18 14:11:23;;;;;;;4.17;0.80;;;;;;;;;;5038360;28;20576;-66
2023/03/18 14:13:52;;;;;;;0.97;0.70;;;;;;;;;;5061520;28;20997;-66
2023/03/18 14:16:22;;;;;;;3.10;1.03;;;;;;;;;;5074326;28;20445;-66
2023/03/18 14:18:56;;;;;;;1.50;0.80;;;;;;;;;;5074271;28;20927;-67
2023/03/18 14:21:25;;;;;;;1.27;0.97;;;;;;;;;;5074238;28;20518;-66
2023/03/18 14:24:03;;;;;;;0.80;0.70;;;;;;;;;;5073038;28;20445;-66
2023/03/18 14:26:31;;;;;;;0.63;0.60;;;;;;;;;;5073829;28;20905;-66
2023/03/18 14:29:16;;;;;;;0.90;0.77;;;;;;;;;;5073780;28;20438;-67
2023/03/18 14:31:56;;;;;;;1.10;0.73;;;;;;;;;;5074258;28;20444;-67
2023/03/18 14:34:24;;;;;;;1.63;1.03;;;;;;;;;;5073803;28;20468;-67
2023/03/18 14:37:10;;;;;;;0.80;0.70;;;;;;;;;;5072093;28;20437;-67
2023/03/18 14:39:38;;;;;;;1.17;0.70;;;;;;;;;;5073740;28;20441;-67
2023/03/18 14:42:07;;;;;;;0.93;0.70;;;;;;;;;;5072976;28;20437;-67
2023/03/18 14:44:40;;;;;;;1.27;1.03;;;;;;;;;;5073963;28;20750;-68
2023/03/18 14:47:17;;;;;;;1.73;1.00;;;;;;;;;;5073569;28;20465;-76
2023/03/18 14:49:46;;;;;;;0.80;0.67;;;;;;;;;;5061655;28;21102;-82
2023/03/18 14:52:18;;;;;;;1.13;0.70;;;;;;;;;;5072695;28;20452;-72
2023/03/18 14:54:45;;;;;;;0.97;0.73;;;;;;;;;;5073914;28;20830;-73
2023/03/18 14:57:12;;;;;;;0.80;0.60;;;;;;;;;;5073530;28;20449;-72